createdAt,value
2023-01-23T00:01:40.754Z,0.30
2023-01-23T00:04:08.444Z,0.30
2023-01-23T00:06:35.757Z,0.30
2023-01-23T00:09:03.185Z,0.30
2023-01-23T00:11:31.080Z,0.30
2023-01-23T00:13:59.558Z,0.20
2023-01-23T00:16:30.492Z,0.20
2023-01-23T00:18:57.849Z,0.20
2023-01-23T00:21:27.851Z,0.30
2023-01-23T00:23:56.810Z,0.30
2023-01-23T00:26:26.769Z,0.20
2023-01-23T00:28:55.463Z,0.30
2023-01-23T00:31:25.446Z,0.30
2023-01-23T00:34:02.817Z,0.30
2023-01-23T00:36:33.684Z,0.40
2023-01-23T00:39:01.393Z,0.40
2023-01-23T00:41:28.809Z,0.40
2023-01-23T00:43:56.519Z,0.40
2023-01-23T00:46:24.361Z,0.30
2023-01-23T00:48:52.278Z,0.30
2023-01-23T00:51:20.063Z,0.20
2023-01-23T00:53:47.914Z,0.20
2023-01-23T00:56:15.461Z,0.30
2023-01-23T00:58:45.034Z,0.30
2023-01-23T01:01:14.033Z,0.30
2023-01-23T01:03:41.800Z,0.40
2023-01-23T01:06:09.952Z,0.40
2023-01-23T01:08:37.591Z,0.40
2023-01-23T01:11:05.522Z,0.40
2023-01-23T01:13:32.628Z,0.40
2023-01-23T01:16:02.139Z,0.40
2023-01-23T01:18:30.051Z,0.30
2023-01-23T01:20:57.797Z,0.30
2023-01-23T01:23:25.292Z,0.30
2023-01-23T01:25:52.623Z,0.30
2023-01-23T01:28:19.924Z,0.40
2023-01-23T01:30:47.168Z,0.30
2023-01-23T01:33:14.274Z,0.30
2023-01-23T01:35:41.665Z,0.40
2023-01-23T01:38:09.496Z,0.30
2023-01-23T01:40:37.688Z,0.40
2023-01-23T01:43:17.588Z,0.30
2023-01-23T01:46:21.009Z,0.30
2023-01-23T01:49:09.569Z,0.30
2023-01-23T01:51:50.795Z,0.30
2023-01-23T01:54:34.817Z,0.30
2023-01-23T01:57:06.026Z,0.40
2023-01-23T01:59:41.446Z,0.40
2023-01-23T02:02:24.116Z,0.50
2023-01-23T02:04:58.173Z,0.50
2023-01-23T02:07:32.641Z,0.50
2023-01-23T02:10:01.771Z,0.50
2023-01-23T02:12:29.130Z,0.50
2023-01-23T02:14:56.370Z,0.50
2023-01-23T02:17:23.686Z,0.40
2023-01-23T02:20:21.202Z,0.40
2023-01-23T02:22:55.872Z,0.40
2023-01-23T02:25:38.706Z,0.30
2023-01-23T02:28:05.813Z,0.20
2023-01-23T02:30:33.049Z,0.10
2023-01-23T02:33:19.362Z,0.00
2023-01-23T02:35:46.704Z,0.00
2023-01-23T02:38:14.846Z,0.00
2023-01-23T02:40:43.466Z,0.00
2023-01-23T02:43:14.371Z,0.00
2023-01-23T02:45:42.100Z,0.10
2023-01-23T02:48:09.659Z,0.00
2023-01-23T02:50:37.016Z,0.00
2023-01-23T02:53:05.244Z,0.00
2023-01-23T02:55:37.512Z,0.10
2023-01-23T02:58:23.887Z,0.00
2023-01-23T03:00:51.243Z,0.00
2023-01-23T03:03:18.835Z,0.00
2023-01-23T03:05:47.097Z,0.00
2023-01-23T03:08:14.043Z,0.00
2023-01-23T03:10:40.979Z,0.00
2023-01-23T03:13:12.037Z,0.10
2023-01-23T03:15:39.208Z,0.10
2023-01-23T03:18:06.409Z,0.10
2023-01-23T03:20:40.854Z,0.10
2023-01-23T03:23:08.843Z,0.00
2023-01-23T03:25:35.823Z,0.00
2023-01-23T03:28:03.311Z,-0.10
2023-01-23T03:30:30.392Z,-0.10
2023-01-23T03:32:57.360Z,-0.10
2023-01-23T03:35:24.198Z,-0.10
2023-01-23T03:37:52.213Z,-0.10
2023-01-23T03:40:42.006Z,-0.10
2023-01-23T03:43:09.204Z,-0.10
2023-01-23T03:45:36.628Z,-0.20
2023-01-23T03:48:03.909Z,-0.10
2023-01-23T03:50:31.062Z,-0.20
2023-01-23T03:52:58.019Z,-0.20
2023-01-23T03:55:24.944Z,-0.10
2023-01-23T03:57:52.552Z,-0.20
2023-01-23T04:00:20.172Z,-0.20
2023-01-23T04:02:47.526Z,-0.10
2023-01-23T04:05:14.584Z,-0.10
2023-01-23T04:07:41.498Z,-0.10
2023-01-23T04:10:10.749Z,-0.10
2023-01-23T04:12:39.014Z,0.00
2023-01-23T04:15:06.581Z,0.00
2023-01-23T04:17:33.492Z,0.10
2023-01-23T04:20:00.463Z,0.10
2023-01-23T04:22:28.148Z,0.00
2023-01-23T04:24:55.026Z,0.10
2023-01-23T04:27:22.016Z,0.10
2023-01-23T04:29:48.899Z,0.20
2023-01-23T04:32:15.994Z,0.10
2023-01-23T04:34:42.965Z,0.00
2023-01-23T04:37:10.321Z,0.10
2023-01-23T04:39:37.336Z,0.10
2023-01-23T04:42:04.318Z,0.10
2023-01-23T04:44:31.486Z,0.20
2023-01-23T04:47:00.108Z,0.10
2023-01-23T04:49:27.593Z,0.10
2023-01-23T04:51:54.582Z,0.10
2023-01-23T04:54:22.135Z,0.20
2023-01-23T04:56:49.160Z,0.20
2023-01-23T04:59:16.989Z,0.20
2023-01-23T05:01:45.362Z,0.20
2023-01-23T05:04:12.481Z,0.20
2023-01-23T05:06:39.724Z,0.20
2023-01-23T05:09:07.559Z,0.20
2023-01-23T05:11:34.812Z,0.10
2023-01-23T05:14:01.903Z,0.00
2023-01-23T05:16:29.028Z,0.10
2023-01-23T05:18:56.101Z,0.00
2023-01-23T05:21:23.338Z,0.10
2023-01-23T05:23:50.400Z,0.00
2023-01-23T05:26:17.457Z,0.00
2023-01-23T05:28:44.506Z,0.00
2023-01-23T05:31:11.721Z,0.00
2023-01-23T05:33:40.315Z,0.10
2023-01-23T05:36:07.518Z,0.10
2023-01-23T05:38:34.392Z,0.20
2023-01-23T05:41:01.551Z,0.10
2023-01-23T05:43:28.675Z,0.00
2023-01-23T05:45:55.776Z,0.00
2023-01-23T05:48:22.810Z,0.00
2023-01-23T05:50:49.763Z,0.10
2023-01-23T05:53:16.860Z,0.10
2023-01-23T05:55:43.996Z,0.00
2023-01-23T05:58:11.331Z,0.00
2023-01-23T06:00:38.261Z,0.00
2023-01-23T06:03:06.483Z,0.00
2023-01-23T06:05:33.543Z,0.00
2023-01-23T06:08:00.979Z,0.00
2023-01-23T06:10:28.046Z,0.20
2023-01-23T06:12:55.277Z,0.20
2023-01-23T06:15:22.700Z,0.20
2023-01-23T06:17:50.027Z,0.20
2023-01-23T06:20:20.322Z,0.30
2023-01-23T06:22:47.413Z,0.30
2023-01-23T06:25:14.564Z,0.30
2023-01-23T06:27:41.653Z,0.30
2023-01-23T06:30:09.237Z,0.30
2023-01-23T06:32:36.347Z,0.30
2023-01-23T06:35:03.429Z,0.30
2023-01-23T06:37:30.503Z,0.20
2023-01-23T06:39:57.507Z,0.20
2023-01-23T06:42:24.575Z,0.20
2023-01-23T06:44:51.550Z,0.20
2023-01-23T06:47:20.049Z,0.20
2023-01-23T06:49:47.250Z,0.20
2023-01-23T06:52:14.379Z,0.20
2023-01-23T06:54:41.392Z,0.20
2023-01-23T06:57:08.521Z,0.30
2023-01-23T06:59:35.700Z,0.30
2023-01-23T07:02:03.024Z,0.20
2023-01-23T07:04:30.261Z,0.10
2023-01-23T07:06:57.252Z,0.20
2023-01-23T07:09:24.531Z,0.10
2023-01-23T07:11:51.412Z,0.10
2023-01-23T07:14:18.391Z,0.10
2023-01-23T07:16:45.469Z,0.10
2023-01-23T07:19:12.576Z,0.00
2023-01-23T07:21:39.754Z,0.10
2023-01-23T07:24:07.190Z,0.10
2023-01-23T07:26:34.295Z,0.00
2023-01-23T07:29:01.433Z,0.00
2023-01-23T07:31:28.751Z,0.00
2023-01-23T07:33:55.949Z,0.00
2023-01-23T07:36:23.149Z,0.00
2023-01-23T07:38:50.108Z,0.00
2023-01-23T07:41:17.081Z,0.00
2023-01-23T07:43:44.138Z,0.00
2023-01-23T07:46:14.474Z,0.00
2023-01-23T07:48:41.933Z,0.00
2023-01-23T07:51:09.092Z,0.00
2023-01-23T07:53:36.134Z,0.00
2023-01-23T07:56:06.858Z,-0.10
2023-01-23T07:58:34.288Z,0.00
2023-01-23T08:01:08.754Z,0.10
2023-01-23T08:03:35.834Z,0.10
2023-01-23T08:06:02.905Z,0.10
2023-01-23T08:08:30.725Z,0.10
2023-01-23T08:10:57.691Z,0.10
2023-01-23T08:13:24.839Z,0.10
2023-01-23T08:15:53.354Z,0.20
2023-01-23T08:18:20.426Z,0.10
2023-01-23T08:20:54.296Z,0.20
2023-01-23T08:23:24.049Z,0.20
2023-01-23T08:25:53.875Z,0.20
2023-01-23T08:28:21.517Z,0.30
2023-01-23T08:30:48.917Z,0.30
2023-01-23T08:33:16.261Z,0.30
2023-01-23T08:35:54.859Z,0.20
2023-01-23T08:38:22.602Z,0.20
2023-01-23T08:40:51.608Z,0.30
2023-01-23T08:43:19.307Z,0.30
2023-01-23T08:45:50.642Z,0.40
2023-01-23T08:48:18.494Z,0.40
2023-01-23T08:50:45.899Z,0.40
2023-01-23T08:53:13.394Z,0.30
2023-01-23T08:55:40.676Z,0.30
2023-01-23T08:58:09.545Z,0.40
2023-01-23T09:00:37.051Z,0.30
2023-01-23T09:03:04.585Z,0.30
2023-01-23T09:05:31.944Z,0.30
2023-01-23T09:08:02.356Z,0.30
2023-01-23T09:10:29.571Z,0.30
2023-01-23T09:12:57.707Z,0.30
2023-01-23T09:15:24.752Z,0.40
2023-01-23T09:17:51.856Z,0.40
2023-01-23T09:20:19.272Z,0.40
2023-01-23T09:22:46.554Z,0.40
2023-01-23T09:25:14.273Z,0.40
2023-01-23T09:27:41.368Z,0.40
2023-01-23T09:30:08.877Z,0.50
2023-01-23T09:32:35.891Z,0.60
2023-01-23T09:35:02.931Z,0.50
2023-01-23T09:37:51.179Z,0.60
2023-01-23T09:40:22.586Z,0.70
2023-01-23T09:42:51.515Z,0.60
2023-01-23T09:45:24.462Z,0.60
2023-01-23T09:48:13.947Z,0.60
2023-01-23T09:50:52.018Z,0.70
2023-01-23T09:53:22.658Z,0.70
2023-01-23T09:55:58.168Z,0.70
2023-01-23T09:58:30.739Z,0.80
2023-01-23T10:00:58.170Z,0.70
2023-01-23T10:03:30.234Z,0.80
2023-01-23T10:06:20.648Z,0.90
2023-01-23T10:09:17.450Z,0.90
2023-01-23T10:12:15.238Z,1.00
2023-01-23T10:15:06.827Z,1.00
2023-01-23T10:17:54.010Z,1.00
2023-01-23T10:21:10.161Z,1.00
2023-01-23T10:24:03.638Z,0.80
2023-01-23T10:26:37.761Z,0.90
2023-01-23T10:29:19.876Z,0.90
2023-01-23T10:31:54.422Z,0.90
2023-01-23T10:34:25.836Z,1.10
2023-01-23T10:37:16.912Z,0.90
2023-01-23T10:39:57.708Z,1.00
2023-01-23T10:42:27.322Z,0.90
2023-01-23T10:44:54.405Z,0.80
2023-01-23T10:47:33.205Z,0.70
2023-01-23T10:50:00.690Z,0.80
2023-01-23T10:52:32.843Z,0.80
2023-01-23T10:55:00.790Z,0.70
2023-01-23T10:57:30.947Z,0.80
2023-01-23T11:00:07.123Z,0.90
2023-01-23T11:02:37.235Z,0.90
2023-01-23T11:05:52.887Z,0.90
2023-01-23T11:08:26.069Z,0.90
2023-01-23T11:10:53.396Z,0.90
2023-01-23T11:13:31.085Z,0.90
2023-01-23T11:15:58.037Z,1.00
2023-01-23T11:18:39.759Z,1.00
2023-01-23T11:21:06.795Z,1.00
2023-01-23T11:23:34.618Z,1.00
2023-01-23T11:26:03.296Z,1.00
2023-01-23T11:28:35.467Z,1.00
2023-01-23T11:31:15.946Z,1.00
2023-01-23T11:33:59.295Z,1.00
2023-01-23T11:36:36.056Z,1.00
2023-01-23T11:39:17.760Z,1.00
2023-01-23T11:41:47.631Z,1.00
2023-01-23T11:44:22.703Z,0.90
2023-01-23T11:47:17.872Z,1.00
2023-01-23T11:50:22.695Z,1.00
2023-01-23T11:53:02.436Z,1.00
2023-01-23T11:55:47.419Z,1.00
2023-01-23T11:58:30.793Z,1.00
2023-01-23T12:01:21.031Z,1.00
2023-01-23T12:04:04.531Z,1.00
2023-01-23T12:07:13.900Z,0.90
2023-01-23T12:09:55.389Z,0.90
2023-01-23T12:12:51.310Z,1.00
2023-01-23T12:15:40.387Z,1.20
2023-01-23T12:18:28.965Z,1.20
2023-01-23T12:21:25.794Z,1.40
2023-01-23T12:24:17.153Z,1.40
2023-01-23T12:27:16.868Z,1.40
2023-01-23T12:29:55.824Z,1.50
2023-01-23T12:32:35.846Z,1.40
2023-01-23T12:35:27.043Z,1.60
2023-01-23T12:38:07.292Z,1.50
2023-01-23T12:40:42.007Z,1.50
2023-01-23T12:43:18.478Z,1.60
2023-01-23T12:45:58.170Z,1.50
2023-01-23T12:48:39.445Z,1.40
2023-01-23T12:51:17.044Z,1.50
2023-01-23T12:53:47.441Z,1.50
2023-01-23T12:56:23.225Z,1.50
2023-01-23T12:59:02.337Z,1.50
2023-01-23T13:01:50.867Z,1.60
2023-01-23T13:04:53.605Z,1.50
2023-01-23T13:07:26.461Z,1.50
2023-01-23T13:10:13.668Z,1.50
2023-01-23T13:12:40.973Z,1.50
2023-01-23T13:15:39.903Z,1.50
2023-01-23T13:18:23.434Z,1.50
2023-01-23T13:21:17.808Z,1.40
2023-01-23T13:23:45.124Z,1.40
2023-01-23T13:26:13.410Z,1.40
2023-01-23T13:28:46.426Z,1.50
2023-01-23T13:31:46.676Z,1.50
2023-01-23T13:34:16.876Z,1.50
2023-01-23T13:37:08.172Z,1.60
2023-01-23T13:39:37.374Z,1.60
2023-01-23T13:42:16.386Z,1.60
2023-01-23T13:45:18.319Z,1.60
2023-01-23T14:22:39.586Z,2.00
2023-01-23T14:25:17.221Z,1.80
2023-01-23T14:27:53.180Z,1.80
2023-01-23T14:30:27.106Z,1.80
2023-01-23T14:32:55.173Z,1.70
2023-01-23T14:35:30.683Z,1.70
2023-01-23T14:38:05.161Z,1.80
2023-01-23T14:40:46.673Z,1.80
2023-01-23T14:43:22.624Z,1.90
2023-01-23T14:45:58.156Z,1.90
2023-01-23T14:48:25.530Z,2.00
2023-01-23T14:51:22.113Z,2.00
2023-01-23T14:53:59.404Z,1.90
2023-01-23T14:56:30.856Z,1.90
2023-01-23T14:59:00.781Z,1.90
2023-01-23T15:01:28.498Z,1.90
2023-01-23T15:04:01.506Z,1.90
2023-01-23T15:06:30.316Z,1.90
2023-01-23T15:09:07.507Z,1.90
2023-01-23T15:11:35.110Z,1.90
2023-01-23T15:14:02.553Z,1.80
2023-01-23T15:16:34.960Z,1.80
2023-01-23T15:19:06.340Z,1.80
2023-01-23T15:21:56.934Z,1.70
2023-01-23T15:24:28.534Z,1.80
2023-01-23T15:27:04.720Z,1.80
2023-01-23T15:29:32.906Z,1.80
2023-01-23T15:32:01.176Z,1.80
2023-01-23T15:34:33.930Z,1.80
2023-01-23T15:37:23.309Z,1.90
2023-01-23T15:40:00.947Z,1.90
2023-01-23T15:42:33.646Z,2.00
2023-01-23T15:45:01.919Z,2.00
2023-01-23T15:47:32.716Z,2.00
2023-01-23T15:50:03.068Z,2.00
2023-01-23T15:52:51.043Z,2.00
2023-01-23T15:55:19.620Z,2.00
2023-01-23T15:57:46.749Z,2.00
2023-01-23T16:00:24.762Z,2.00
2023-01-23T16:02:56.575Z,2.00
2023-01-23T16:05:26.961Z,2.00
2023-01-23T16:07:55.457Z,2.00
2023-01-23T16:10:29.747Z,2.00
2023-01-23T16:12:58.261Z,2.00
2023-01-23T16:15:27.874Z,2.00
2023-01-23T16:17:56.116Z,2.10
2023-01-23T16:20:28.340Z,2.10
2023-01-23T16:23:08.465Z,2.00
2023-01-23T16:25:45.100Z,2.00
2023-01-23T16:28:15.045Z,2.00
2023-01-23T16:30:42.337Z,1.90
2023-01-23T16:33:09.561Z,1.90
2023-01-23T16:35:36.931Z,1.90
2023-01-23T16:38:04.215Z,1.90
2023-01-23T16:40:32.706Z,1.90
2023-01-23T16:43:02.611Z,1.90
2023-01-23T16:45:31.678Z,1.90
2023-01-23T16:47:59.207Z,1.90
2023-01-23T16:50:34.847Z,1.90
2023-01-23T16:53:26.531Z,1.90
2023-01-23T16:55:59.285Z,1.80
2023-01-23T16:58:29.980Z,1.90
2023-01-23T17:01:08.781Z,1.80
2023-01-23T17:03:40.852Z,1.90
2023-01-23T17:06:15.625Z,1.90
2023-01-23T17:08:42.576Z,1.90
2023-01-23T17:11:15.234Z,2.00
2023-01-23T17:13:43.182Z,2.00
2023-01-23T17:16:25.444Z,2.00
2023-01-23T17:18:54.513Z,2.00
2023-01-23T17:21:25.197Z,1.90
2023-01-23T17:23:52.558Z,1.90
2023-01-23T17:26:20.913Z,1.90
2023-01-23T17:28:48.217Z,1.90
2023-01-23T17:31:24.046Z,1.90
2023-01-23T17:33:52.580Z,1.90
2023-01-23T17:36:19.801Z,1.90
2023-01-23T17:38:46.722Z,1.90
2023-01-23T17:41:16.999Z,1.90
2023-01-23T17:43:44.860Z,1.90
2023-01-23T17:46:26.812Z,1.90
2023-01-23T17:48:55.875Z,1.90
2023-01-23T17:51:24.230Z,1.90
2023-01-23T17:53:51.655Z,2.00
2023-01-23T17:56:18.916Z,1.90
2023-01-23T17:58:46.329Z,1.90
2023-01-23T18:01:26.064Z,1.90
2023-01-23T18:03:53.783Z,1.80
2023-01-23T18:06:20.926Z,1.80
2023-01-23T18:08:47.973Z,1.90
2023-01-23T18:11:23.832Z,1.80
2023-01-23T18:14:23.073Z,1.80
2023-01-23T18:16:50.446Z,1.80
2023-01-23T18:19:25.649Z,1.90
2023-01-23T18:21:55.036Z,1.90
2023-01-23T18:24:30.235Z,2.00
2023-01-23T18:27:20.670Z,2.00
2023-01-23T18:30:18.224Z,1.90
2023-01-23T18:33:15.023Z,1.90
2023-01-23T18:35:53.912Z,1.90
2023-01-23T18:39:01.908Z,1.90
2023-01-23T18:41:29.718Z,1.90
2023-01-23T18:44:10.773Z,1.90
2023-01-23T18:46:38.068Z,1.90
2023-01-23T18:49:05.308Z,2.00
2023-01-23T18:51:47.874Z,2.00
2023-01-23T18:54:33.352Z,2.00
2023-01-23T18:57:26.064Z,2.00
2023-01-23T19:00:28.908Z,2.00
2023-01-23T19:03:13.798Z,2.10
2023-01-23T19:05:41.995Z,2.10
2023-01-23T19:08:30.774Z,2.10
2023-01-23T19:11:04.934Z,2.10
2023-01-23T19:13:42.963Z,2.10
2023-01-23T19:16:15.100Z,2.10
2023-01-23T19:18:48.845Z,2.10
2023-01-23T19:21:17.760Z,2.10
2023-01-23T19:24:14.276Z,2.10
2023-01-23T19:26:42.095Z,2.10
2023-01-23T19:29:25.807Z,2.10
2023-01-23T19:32:04.668Z,2.10
2023-01-23T19:34:33.111Z,2.00
2023-01-23T19:37:00.466Z,2.00
2023-01-23T19:39:27.546Z,2.00
2023-01-23T19:41:54.789Z,2.00
2023-01-23T19:44:25.135Z,2.00
2023-01-23T19:46:52.666Z,2.00
2023-01-23T19:49:20.388Z,2.00
2023-01-23T19:51:47.793Z,2.00
2023-01-23T19:54:15.875Z,2.00
2023-01-23T19:56:43.296Z,2.00
2023-01-23T19:59:11.397Z,1.90
2023-01-23T20:01:40.285Z,1.90
2023-01-23T20:04:20.870Z,1.90
2023-01-23T20:06:57.346Z,1.90
2023-01-23T20:09:24.389Z,1.90
2023-01-23T20:11:52.343Z,1.90
2023-01-23T20:14:19.572Z,2.00
2023-01-23T20:16:46.503Z,1.90
2023-01-23T20:19:15.411Z,1.90
2023-01-23T20:21:42.767Z,1.90
2023-01-23T20:24:10.678Z,1.90
2023-01-23T20:26:38.642Z,1.90
2023-01-23T20:29:08.660Z,1.90
2023-01-23T20:31:36.116Z,2.00
2023-01-23T20:34:03.506Z,2.00
2023-01-23T20:36:30.475Z,2.00
2023-01-23T20:38:57.751Z,2.00
2023-01-23T20:41:24.881Z,2.10
2023-01-23T20:43:52.075Z,2.10
2023-01-23T20:46:19.528Z,2.00
2023-01-23T20:48:47.074Z,2.10
2023-01-23T20:51:16.183Z,2.00
2023-01-23T20:53:43.898Z,2.10
2023-01-23T20:56:19.405Z,2.20
2023-01-23T20:59:07.615Z,2.10
2023-01-23T21:01:56.478Z,2.20
2023-01-23T21:04:26.156Z,2.20
2023-01-23T21:06:53.330Z,2.10
2023-01-23T21:09:21.716Z,2.10
2023-01-23T21:11:50.824Z,2.10
2023-01-23T21:14:18.283Z,2.20
2023-01-23T21:16:45.912Z,2.10
2023-01-23T21:19:13.284Z,2.10
2023-01-23T21:21:40.630Z,2.10
2023-01-23T21:24:08.214Z,2.20
2023-01-23T21:26:36.612Z,2.20
2023-01-23T21:29:04.353Z,2.10
2023-01-23T21:31:33.765Z,2.10
2023-01-23T21:34:03.876Z,2.10
2023-01-23T21:36:31.213Z,2.00
2023-01-23T21:38:58.455Z,2.10
2023-01-23T21:41:25.410Z,2.00
2023-01-23T21:43:52.320Z,2.10
2023-01-23T21:46:19.609Z,2.10
2023-01-23T21:48:46.655Z,2.10
2023-01-23T21:51:15.051Z,2.10
2023-01-23T21:53:44.995Z,2.20
2023-01-23T21:56:14.205Z,2.20
2023-01-23T21:58:42.420Z,2.20
2023-01-23T22:01:33.406Z,2.20
2023-01-23T22:04:02.615Z,2.20
2023-01-23T22:06:30.198Z,2.20
2023-01-23T22:08:57.946Z,2.20
2023-01-23T22:11:25.319Z,2.10
2023-01-23T22:13:53.061Z,2.10
2023-01-23T22:16:22.908Z,2.20
2023-01-23T22:18:55.335Z,2.10
2023-01-23T22:21:22.353Z,2.10
2023-01-23T22:23:49.358Z,2.10
2023-01-23T22:26:17.609Z,2.10
2023-01-23T22:28:44.797Z,2.10
2023-01-23T22:31:14.556Z,2.20
2023-01-23T22:33:44.101Z,2.20
2023-01-23T22:36:14.391Z,2.10
2023-01-23T22:38:41.368Z,2.10
2023-01-23T22:41:13.503Z,2.10
2023-01-23T22:43:40.505Z,2.00
2023-01-23T22:46:11.058Z,2.10
2023-01-23T22:48:38.980Z,2.10
2023-01-23T22:51:24.995Z,2.10
2023-01-23T22:53:53.833Z,2.10
2023-01-23T22:56:21.542Z,2.10
2023-01-23T22:58:50.904Z,2.10
2023-01-23T23:01:19.216Z,2.10
2023-01-23T23:03:46.170Z,2.10
2023-01-23T23:06:15.840Z,2.10
2023-01-23T23:08:47.241Z,2.10
2023-01-23T23:11:20.626Z,2.10
2023-01-23T23:13:49.149Z,2.10
2023-01-23T23:16:22.173Z,2.00
2023-01-23T23:18:51.544Z,2.10
2023-01-23T23:21:21.677Z,2.10
2023-01-23T23:23:49.048Z,2.00
2023-01-23T23:26:16.220Z,2.00
2023-01-23T23:28:43.284Z,2.10
2023-01-23T23:31:10.578Z,2.00
2023-01-23T23:33:38.096Z,2.10
2023-01-23T23:36:05.812Z,2.10
2023-01-23T23:38:33.061Z,2.10
2023-01-23T23:41:08.335Z,2.00
2023-01-23T23:43:35.435Z,2.00
2023-01-23T23:46:05.045Z,2.00
2023-01-23T23:48:34.251Z,2.00
2023-01-23T23:51:03.488Z,2.00
2023-01-23T23:53:30.984Z,2.00
2023-01-23T23:55:58.390Z,2.00
2023-01-23T23:58:25.842Z,2.00
